createdAt,value
2018-11-11T00:00:19.527Z,19.3
2018-11-11T00:01:10.842Z,19.3
2018-11-11T00:02:00.972Z,19.3
2018-11-11T00:02:50.220Z,19.3
2018-11-11T00:03:40.529Z,19.3
2018-11-11T00:04:29.906Z,19.3
2018-11-11T00:05:19.635Z,19.3
2018-11-11T00:06:09.899Z,19.3
2018-11-11T00:07:01.032Z,19.3
2018-11-11T00:25:08.237Z,19.3
2018-11-11T00:25:59.423Z,19.3
2018-11-11T00:26:48.906Z,19.3
2018-11-11T00:27:40.135Z,19.3
2018-11-11T00:28:30.946Z,19.3
2018-11-11T00:29:20.262Z,19.3
2018-11-11T00:30:09.155Z,19.3
2018-11-11T00:30:59.281Z,19.4
2018-11-11T00:31:49.335Z,19.3
2018-11-11T00:32:39.295Z,19.3
2018-11-11T00:33:29.929Z,19.4
2018-11-11T00:34:19.230Z,19.4
2018-11-11T00:35:10.337Z,19.3
2018-11-11T00:35:59.800Z,19.4
2018-11-11T00:36:49.369Z,19.4
2018-11-11T00:37:40.839Z,19.4
2018-11-11T00:38:30.019Z,19.3
2018-11-11T00:39:20.702Z,19.4
2018-11-11T00:40:09.505Z,19.4
2018-11-11T00:41:00.297Z,19.4
2018-11-11T00:41:51.137Z,19.4
2018-11-11T00:42:40.439Z,19.4
2018-11-11T00:43:30.391Z,19.4
2018-11-11T00:44:19.705Z,19.4
2018-11-11T00:45:10.228Z,19.4
2018-11-11T00:46:00.055Z,19.4
2018-11-11T00:46:49.844Z,19.4
2018-11-11T00:47:40.284Z,19.4
2018-11-11T00:48:29.879Z,19.4
2018-11-11T00:49:19.701Z,19.4
2018-11-11T00:50:10.643Z,19.4
2018-11-11T00:51:01.961Z,19.4
2018-11-11T00:51:51.496Z,19.4
2018-11-11T00:52:40.514Z,19.4
2018-11-11T00:53:31.079Z,19.4
2018-11-11T00:54:21.157Z,19.4
2018-11-11T00:55:10.788Z,19.4
2018-11-11T00:56:01.506Z,19.4
2018-11-11T00:56:51.960Z,19.4
2018-11-11T00:57:41.139Z,19.4
2018-11-11T00:58:32.083Z,19.4
2018-11-11T00:59:22.318Z,19.4
2018-11-11T01:00:11.817Z,19.4
2018-11-11T01:01:01.896Z,19.4
2018-11-11T01:01:51.668Z,19.4
2018-11-11T01:02:41.535Z,19.4
2018-11-11T01:03:32.165Z,19.4
2018-11-11T01:04:22.223Z,19.4
2018-11-11T01:05:11.748Z,19.4
2018-11-11T01:06:02.045Z,19.4
2018-11-11T01:06:51.635Z,19.4
2018-11-11T01:07:41.777Z,19.4
2018-11-11T01:08:32.719Z,19.4
2018-11-11T01:09:22.765Z,19.4
2018-11-11T01:10:12.590Z,19.4
2018-11-11T01:11:02.367Z,19.4
2018-11-11T01:11:52.093Z,19.4
2018-11-11T01:12:42.088Z,19.4
2018-11-11T01:13:32.023Z,19.4
2018-11-11T01:14:22.364Z,19.4
2018-11-11T01:15:12.372Z,19.4
2018-11-11T01:16:03.355Z,19.4
2018-11-11T01:16:53.109Z,19.4
2018-11-11T01:17:42.797Z,19.4
2018-11-11T01:18:32.902Z,19.4
2018-11-11T01:19:23.307Z,19.4
2018-11-11T01:20:13.322Z,19.4
2018-11-11T01:21:03.609Z,19.4
2018-11-11T01:21:53.765Z,19.4
2018-11-11T01:22:43.277Z,19.4
2018-11-11T01:23:32.437Z,19.4
2018-11-11T01:24:23.377Z,19.4
2018-11-11T01:25:13.427Z,19.4
2018-11-11T01:26:03.467Z,19.4
2018-11-11T01:26:54.019Z,19.5
2018-11-11T01:27:43.096Z,19.4
2018-11-11T01:28:33.116Z,19.4
2018-11-11T01:29:22.802Z,19.4
2018-11-11T01:30:13.342Z,19.4
2018-11-11T01:31:03.097Z,19.4
2018-11-11T01:31:52.934Z,19.4
2018-11-11T01:32:44.019Z,19.4
2018-11-11T01:33:33.292Z,19.4
2018-11-11T01:34:23.252Z,19.4
2018-11-11T01:35:12.536Z,19.5
2018-11-11T01:36:04.744Z,19.4
2018-11-11T01:36:54.038Z,19.4
2018-11-11T01:37:44.609Z,19.4
2018-11-11T01:38:33.885Z,19.4
2018-11-11T01:39:23.425Z,19.4
2018-11-11T01:40:14.299Z,19.4
2018-11-11T01:41:04.024Z,19.4
2018-11-11T01:41:54.535Z,19.4
2018-11-11T01:42:45.104Z,19.4
2018-11-11T01:43:33.780Z,19.4
2018-11-11T01:44:24.601Z,19.4
2018-11-11T01:45:14.030Z,19.4
2018-11-11T01:46:04.415Z,19.5
2018-11-11T01:46:54.721Z,19.4
2018-11-11T01:47:43.960Z,19.4
2018-11-11T01:48:34.532Z,19.5
2018-11-11T01:49:24.643Z,19.5
2018-11-11T01:50:14.770Z,19.4
2018-11-11T01:51:05.101Z,19.5
2018-11-11T01:51:54.822Z,19.4
2018-11-11T01:52:45.109Z,19.5
2018-11-11T01:53:34.896Z,19.5
2018-11-11T01:54:24.703Z,19.5
2018-11-11T01:55:15.140Z,19.5
2018-11-11T01:56:03.846Z,19.5
2018-11-11T01:56:54.750Z,19.5
2018-11-11T01:57:45.197Z,19.5
2018-11-11T01:58:34.781Z,19.5
2018-11-11T01:59:25.167Z,19.5
2018-11-11T02:00:13.715Z,19.5
2018-11-11T02:01:06.165Z,19.5
2018-11-11T02:01:54.415Z,19.5
2018-11-11T02:02:46.082Z,19.5
2018-11-11T02:03:35.152Z,19.5
2018-11-11T02:04:26.225Z,19.5
2018-11-11T02:05:15.281Z,19.5
2018-11-11T02:06:06.109Z,19.5
2018-11-11T02:06:56.171Z,19.5
2018-11-11T02:07:45.676Z,19.5
2018-11-11T02:08:36.611Z,19.5
2018-11-11T02:09:26.028Z,19.5
2018-11-11T02:10:15.860Z,19.5
2018-11-11T02:11:05.635Z,19.5
2018-11-11T02:11:56.326Z,19.5
2018-11-11T02:12:47.434Z,19.5
2018-11-11T02:13:36.955Z,19.5
2018-11-11T02:14:26.489Z,19.5
2018-11-11T02:15:16.474Z,19.5
2018-11-11T02:16:06.891Z,19.5
2018-11-11T02:16:56.579Z,19.5
2018-11-11T02:17:46.997Z,19.5
2018-11-11T02:18:36.756Z,19.5
2018-11-11T02:19:26.313Z,19.5
2018-11-11T02:20:17.135Z,19.5
2018-11-11T02:21:06.464Z,19.5
2018-11-11T02:21:57.524Z,19.5
2018-11-11T02:22:47.218Z,19.5
2018-11-11T02:23:38.692Z,19.5
2018-11-11T02:24:27.426Z,19.6
2018-11-11T02:25:16.929Z,19.5
2018-11-11T02:26:08.065Z,19.5
2018-11-11T02:26:58.681Z,19.6
2018-11-11T02:27:47.854Z,19.5
2018-11-11T02:28:36.953Z,19.5
2018-11-11T02:29:26.911Z,19.6
2018-11-11T02:30:17.660Z,19.5
2018-11-11T02:31:07.628Z,19.5
2018-11-11T02:31:58.319Z,19.6
2018-11-11T02:32:47.355Z,19.6
2018-11-11T02:33:37.600Z,19.5
2018-11-11T02:34:28.135Z,19.6
2018-11-11T02:35:18.013Z,19.6
2018-11-11T02:36:08.374Z,19.6
2018-11-11T02:36:57.734Z,19.5
2018-11-11T02:37:49.920Z,19.6
2018-11-11T02:38:37.128Z,19.6
2018-11-11T02:39:29.020Z,19.6
2018-11-11T02:40:18.542Z,19.6
2018-11-11T02:41:08.309Z,19.6
2018-11-11T02:41:58.418Z,19.6
2018-11-11T02:42:47.927Z,19.6
2018-11-11T02:43:39.342Z,19.6
2018-11-11T02:44:28.847Z,19.6
2018-11-11T02:45:19.261Z,19.6
2018-11-11T02:46:07.903Z,19.6
2018-11-11T02:46:58.568Z,19.6
2018-11-11T02:47:49.014Z,19.6
2018-11-11T02:48:39.226Z,19.6
2018-11-11T02:49:28.652Z,19.6
2018-11-11T02:50:17.974Z,19.6
2018-11-11T02:51:09.218Z,19.6
2018-11-11T02:51:58.960Z,19.6
2018-11-11T02:52:48.494Z,19.6
2018-11-11T02:53:38.697Z,19.6
2018-11-11T02:54:28.594Z,19.6
2018-11-11T02:55:19.459Z,19.6
2018-11-11T02:56:09.571Z,19.6
2018-11-11T02:56:59.242Z,19.6
2018-11-11T02:57:48.981Z,19.6
2018-11-11T02:58:39.644Z,19.6
2018-11-11T02:59:28.771Z,19.6
2018-11-11T03:00:19.787Z,19.6
2018-11-11T03:01:10.599Z,19.6
2018-11-11T03:01:59.131Z,19.6
2018-11-11T03:02:49.576Z,19.6
2018-11-11T03:03:40.508Z,19.6
2018-11-11T03:04:31.148Z,19.6
2018-11-11T03:05:20.346Z,19.6
2018-11-11T03:06:10.479Z,19.6
2018-11-11T03:07:00.678Z,19.6
2018-11-11T03:07:50.864Z,19.6
2018-11-11T03:08:39.871Z,19.6
2018-11-11T03:09:32.012Z,19.6
2018-11-11T03:10:21.586Z,19.6
2018-11-11T03:11:10.906Z,19.6
2018-11-11T03:12:01.673Z,19.6
2018-11-11T03:12:51.530Z,19.6
2018-11-11T03:13:41.278Z,19.6
2018-11-11T03:14:31.263Z,19.6
2018-11-11T03:15:21.956Z,19.6
2018-11-11T03:16:10.193Z,19.6
2018-11-11T03:17:01.750Z,19.6
2018-11-11T03:17:51.559Z,19.6
2018-11-11T03:18:41.533Z,19.6
2018-11-11T03:19:31.827Z,19.6
2018-11-11T03:20:22.443Z,19.6
2018-11-11T03:21:11.482Z,19.6
2018-11-11T03:22:01.883Z,19.6
2018-11-11T03:22:51.395Z,19.6
2018-11-11T03:23:41.952Z,19.6
2018-11-11T03:24:32.583Z,19.6
2018-11-11T03:25:21.857Z,19.6
2018-11-11T03:26:11.845Z,19.6
2018-11-11T03:27:01.881Z,19.6
2018-11-11T03:27:51.990Z,19.6
2018-11-11T03:28:42.043Z,19.6
2018-11-11T03:29:32.423Z,19.6
2018-11-11T03:30:22.501Z,19.6
2018-11-11T03:31:12.403Z,19.6
2018-11-11T03:32:02.933Z,19.6
2018-11-11T03:32:52.887Z,19.6
2018-11-11T03:33:42.248Z,19.6
2018-11-11T03:34:33.592Z,19.6
2018-11-11T03:35:21.097Z,19.6
2018-11-11T03:36:12.565Z,19.6
2018-11-11T03:37:03.617Z,19.6
2018-11-11T03:37:53.059Z,19.6
2018-11-11T03:38:41.578Z,19.6
2018-11-11T03:39:32.905Z,19.6
2018-11-11T03:40:21.953Z,19.6
2018-11-11T03:41:12.442Z,19.6
2018-11-11T03:42:02.640Z,19.6
2018-11-11T03:42:53.120Z,19.6
2018-11-11T03:43:43.107Z,19.7
2018-11-11T03:44:32.706Z,19.6
2018-11-11T03:45:23.531Z,19.6
2018-11-11T03:46:13.302Z,19.6
2018-11-11T03:47:03.746Z,19.6
2018-11-11T03:47:53.992Z,19.6
2018-11-11T03:48:43.236Z,19.6
2018-11-11T03:49:33.446Z,19.6
2018-11-11T03:50:23.734Z,19.7
2018-11-11T03:51:13.608Z,19.6
2018-11-11T03:52:04.223Z,19.7
2018-11-11T03:52:54.321Z,19.6
2018-11-11T03:53:43.261Z,19.6
2018-11-11T03:54:34.382Z,19.6
2018-11-11T03:55:25.002Z,19.6
2018-11-11T03:56:13.722Z,19.6
2018-11-11T03:57:05.149Z,19.7
2018-11-11T03:57:55.165Z,19.7
2018-11-11T03:58:45.235Z,19.6
2018-11-11T03:59:33.801Z,19.6
2018-11-11T04:00:25.042Z,19.6
2018-11-11T04:01:14.341Z,19.6
2018-11-11T04:02:03.660Z,19.6
2018-11-11T04:02:55.080Z,19.6
2018-11-11T04:03:44.785Z,19.6
2018-11-11T04:04:33.807Z,19.7
2018-11-11T04:05:23.668Z,19.7
2018-11-11T04:06:15.735Z,19.7
2018-11-11T04:07:05.165Z,19.6
2018-11-11T04:07:56.163Z,19.7
2018-11-11T04:08:44.429Z,19.6
2018-11-11T04:09:35.048Z,19.6
2018-11-11T04:10:26.540Z,19.6
2018-11-11T04:11:15.609Z,19.7
2018-11-11T04:12:04.867Z,19.7
2018-11-11T04:12:55.967Z,19.7
2018-11-11T04:13:46.069Z,19.7
2018-11-11T04:14:34.965Z,19.7
2018-11-11T04:15:26.124Z,19.7
2018-11-11T04:16:15.084Z,19.6
2018-11-11T04:17:06.472Z,19.7
2018-11-11T04:17:56.875Z,19.7
2018-11-11T04:18:46.459Z,19.7
2018-11-11T04:19:36.393Z,19.7
2018-11-11T04:20:26.597Z,19.7
2018-11-11T04:21:15.984Z,19.7
2018-11-11T04:22:06.649Z,19.7
2018-11-11T04:22:56.491Z,19.7
2018-11-11T04:23:46.198Z,19.7
2018-11-11T04:24:35.796Z,19.7
2018-11-11T04:25:26.766Z,19.7
2018-11-11T04:26:16.431Z,19.7
2018-11-11T04:27:07.046Z,19.7
2018-11-11T04:27:56.846Z,19.7
2018-11-11T04:28:47.029Z,19.7
2018-11-11T04:29:36.598Z,19.7
2018-11-11T04:30:26.798Z,19.7
2018-11-11T04:31:17.043Z,19.7
2018-11-11T04:32:07.368Z,19.7
2018-11-11T04:32:56.851Z,19.7
2018-11-11T04:33:47.208Z,19.7
2018-11-11T04:34:37.568Z,19.7
2018-11-11T04:35:27.862Z,19.7
2018-11-11T04:36:17.703Z,19.7
2018-11-11T04:54:20.798Z,19.7
2018-11-11T04:55:10.188Z,19.7
2018-11-11T04:56:01.031Z,19.7
2018-11-11T04:56:50.896Z,19.7
2018-11-11T04:57:41.188Z,19.7
2018-11-11T04:58:30.956Z,19.7
2018-11-11T04:59:20.944Z,19.7
2018-11-11T05:00:11.371Z,19.7
2018-11-11T05:01:00.219Z,19.7
2018-11-11T05:01:51.499Z,19.7
2018-11-11T05:02:40.350Z,19.7
2018-11-11T05:03:30.575Z,19.7
2018-11-11T05:04:21.753Z,19.7
2018-11-11T05:05:11.855Z,19.7
2018-11-11T05:06:00.860Z,19.7
2018-11-11T05:06:51.486Z,19.7
2018-11-11T05:07:41.855Z,19.8
2018-11-11T05:08:31.560Z,19.7
2018-11-11T05:09:21.398Z,19.7
2018-11-11T05:10:11.632Z,19.7
2018-11-11T05:11:01.263Z,19.8
2018-11-11T05:11:51.292Z,19.8
2018-11-11T05:12:41.148Z,19.7
2018-11-11T05:13:30.565Z,19.7
2018-11-11T05:14:21.002Z,19.7
2018-11-11T05:15:10.929Z,19.8
2018-11-11T05:16:01.385Z,19.8
2018-11-11T05:16:51.975Z,19.7
2018-11-11T05:17:41.769Z,19.7
2018-11-11T05:18:31.927Z,19.7
2018-11-11T05:19:22.164Z,19.7
2018-11-11T05:20:12.314Z,19.7
2018-11-11T05:21:02.487Z,19.7
2018-11-11T05:21:53.115Z,19.7
2018-11-11T05:22:42.476Z,19.8
2018-11-11T05:23:31.833Z,19.7
2018-11-11T05:24:22.512Z,19.7
2018-11-11T05:25:11.733Z,19.7
2018-11-11T05:26:02.602Z,19.7
2018-11-11T05:26:52.988Z,19.7
2018-11-11T05:27:42.426Z,19.7
2018-11-11T05:28:32.187Z,19.7
2018-11-11T05:29:22.043Z,19.7
2018-11-11T05:30:12.872Z,19.8
2018-11-11T05:31:02.782Z,19.7
2018-11-11T05:31:52.836Z,19.7
2018-11-11T05:32:42.796Z,19.8
2018-11-11T05:33:32.349Z,19.8
2018-11-11T05:34:23.489Z,19.8
2018-11-11T05:35:12.294Z,19.8
2018-11-11T05:36:03.391Z,19.8
2018-11-11T05:36:53.391Z,19.8
2018-11-11T05:37:42.742Z,19.8
2018-11-11T05:38:32.653Z,19.7
2018-11-11T05:39:21.706Z,19.8
2018-11-11T05:40:13.028Z,19.8
2018-11-11T05:41:03.291Z,19.7
2018-11-11T05:41:53.543Z,19.8
2018-11-11T05:42:43.216Z,19.7
2018-11-11T05:43:33.658Z,19.8
2018-11-11T05:44:23.616Z,19.7
2018-11-11T05:45:14.246Z,19.8
2018-11-11T05:46:03.763Z,19.8
2018-11-11T05:46:53.333Z,19.7
2018-11-11T05:47:43.875Z,19.7
2018-11-11T05:48:33.321Z,19.7
2018-11-11T05:49:23.228Z,19.7
2018-11-11T05:50:13.658Z,19.8
2018-11-11T05:51:05.211Z,19.7
2018-11-11T05:51:54.055Z,19.7
2018-11-11T05:52:45.101Z,19.7
2018-11-11T05:53:34.346Z,19.7
2018-11-11T05:54:22.970Z,19.8
2018-11-11T05:55:15.041Z,19.7
2018-11-11T05:56:04.558Z,19.7
2018-11-11T05:56:53.820Z,19.7
2018-11-11T05:57:44.652Z,19.7
2018-11-11T05:58:35.548Z,19.7
2018-11-11T05:59:23.713Z,19.7
2018-11-11T06:00:15.062Z,19.7
2018-11-11T06:01:04.155Z,19.7
2018-11-11T06:01:54.370Z,19.7
2018-11-11T06:02:44.326Z,19.8
2018-11-11T06:03:34.231Z,19.7
2018-11-11T06:04:24.930Z,19.7
2018-11-11T06:05:14.349Z,19.7
2018-11-11T06:06:05.222Z,19.7
2018-11-11T06:06:53.327Z,19.7
2018-11-11T06:07:44.692Z,19.7
2018-11-11T06:08:35.515Z,19.7
2018-11-11T06:09:25.717Z,19.8
2018-11-11T06:10:15.330Z,19.7
2018-11-11T06:11:05.415Z,19.8
2018-11-11T06:11:56.217Z,19.7
2018-11-11T06:12:45.174Z,19.8
2018-11-11T06:13:35.481Z,19.8
2018-11-11T06:14:26.018Z,19.8
2018-11-11T06:15:16.008Z,19.8
2018-11-11T06:16:04.724Z,19.8
2018-11-11T06:16:56.624Z,19.8
2018-11-11T06:17:46.574Z,19.8
2018-11-11T06:18:36.891Z,19.8
2018-11-11T06:19:26.001Z,19.8
2018-11-11T06:20:16.078Z,19.8
2018-11-11T06:21:05.861Z,19.8
2018-11-11T06:21:57.226Z,19.8
2018-11-11T06:22:46.511Z,19.8
2018-11-11T06:23:36.226Z,19.8
2018-11-11T06:24:25.938Z,19.8
2018-11-11T06:25:16.926Z,19.8
2018-11-11T06:26:07.206Z,19.8
2018-11-11T06:26:56.496Z,19.8
2018-11-11T06:27:46.726Z,19.8
2018-11-11T06:28:36.575Z,19.8
2018-11-11T06:29:26.915Z,19.8
2018-11-11T06:30:16.979Z,19.8
2018-11-11T06:31:06.841Z,19.8
2018-11-11T06:31:57.591Z,19.8
2018-11-11T06:32:46.843Z,19.8
2018-11-11T06:33:37.481Z,19.8
2018-11-11T06:34:27.376Z,19.8
2018-11-11T06:35:17.323Z,19.8
2018-11-11T06:36:06.903Z,19.8
2018-11-11T06:36:56.425Z,19.8
2018-11-11T06:37:46.410Z,19.8
2018-11-11T06:38:37.325Z,19.8
2018-11-11T06:39:27.090Z,19.8
2018-11-11T06:40:16.125Z,19.8
2018-11-11T06:41:06.393Z,19.8
2018-11-11T06:41:57.570Z,19.8
2018-11-11T06:42:47.898Z,19.8
2018-11-11T06:43:36.850Z,19.8
2018-11-11T06:44:27.233Z,19.8
2018-11-11T06:45:16.975Z,19.8
2018-11-11T06:46:07.637Z,19.9
2018-11-11T06:46:58.213Z,19.9
2018-11-11T06:47:47.538Z,19.9
2018-11-11T06:48:37.955Z,19.9
2018-11-11T06:49:26.969Z,19.9
2018-11-11T06:50:18.879Z,19.8
2018-11-11T06:51:08.515Z,19.9
2018-11-11T06:51:58.274Z,19.9
2018-11-11T06:52:48.380Z,19.9
2018-11-11T06:53:38.440Z,19.9
2018-11-11T06:54:28.481Z,19.9
2018-11-11T06:55:17.959Z,19.9
2018-11-11T06:56:08.192Z,19.9
2018-11-11T06:56:57.516Z,19.9
2018-11-11T06:57:48.232Z,19.9
2018-11-11T06:58:38.316Z,19.9
2018-11-11T06:59:27.976Z,19.9
2018-11-11T07:00:18.264Z,19.9
2018-11-11T07:01:08.907Z,19.9
2018-11-11T07:01:58.179Z,19.9
2018-11-11T07:02:48.768Z,19.9
2018-11-11T07:03:38.149Z,19.9
2018-11-11T07:04:29.711Z,19.9
2018-11-11T07:05:18.127Z,19.9
2018-11-11T07:06:08.659Z,19.9
2018-11-11T07:07:00.311Z,19.9
2018-11-11T07:07:50.333Z,19.9
2018-11-11T07:08:40.188Z,19.9
2018-11-11T07:09:30.376Z,19.9
2018-11-11T07:10:20.223Z,19.9
2018-11-11T07:11:09.610Z,19.9
2018-11-11T07:11:59.721Z,19.9
2018-11-11T07:12:51.048Z,19.9
2018-11-11T07:13:39.558Z,19.9
2018-11-11T07:14:29.942Z,19.9
2018-11-11T07:15:19.711Z,19.9
2018-11-11T07:16:09.251Z,19.9
2018-11-11T07:17:00.492Z,19.9
2018-11-11T07:17:49.869Z,19.9
2018-11-11T07:18:40.345Z,19.9
2018-11-11T07:19:29.225Z,19.9
2018-11-11T07:20:20.705Z,19.9
2018-11-11T07:21:10.795Z,20
2018-11-11T07:22:01.398Z,20
2018-11-11T07:22:51.673Z,20
2018-11-11T07:23:40.784Z,20
2018-11-11T07:24:31.310Z,20
2018-11-11T07:25:20.902Z,20
2018-11-11T07:26:10.065Z,20
2018-11-11T07:27:01.214Z,20
2018-11-11T07:27:51.515Z,20
2018-11-11T07:28:40.748Z,20
2018-11-11T07:29:31.390Z,20
2018-11-11T07:30:21.333Z,20
2018-11-11T07:31:11.290Z,20
2018-11-11T07:32:00.764Z,20
2018-11-11T07:32:51.147Z,20
2018-11-11T07:33:41.452Z,20.1
2018-11-11T07:34:31.594Z,20.1
2018-11-11T07:35:21.010Z,20.1
2018-11-11T07:36:12.950Z,20.1
2018-11-11T07:37:01.920Z,20.1
2018-11-11T07:37:52.539Z,20.1
2018-11-11T07:38:41.966Z,20.1
2018-11-11T07:39:31.322Z,20.1
2018-11-11T07:40:21.857Z,20.1
2018-11-11T07:41:12.037Z,20.1
2018-11-11T07:42:03.116Z,20.1
2018-11-11T07:42:52.039Z,20.1
2018-11-11T07:43:42.271Z,20.1
2018-11-11T07:44:32.621Z,20.1
2018-11-11T07:45:22.323Z,20.1
2018-11-11T07:46:12.372Z,20.1
2018-11-11T07:47:02.544Z,20.1
2018-11-11T07:47:54.354Z,20.1
2018-11-11T07:48:42.681Z,20.1
2018-11-11T07:49:32.060Z,20.1
2018-11-11T07:50:23.138Z,20.1
2018-11-11T07:51:12.374Z,20.1
2018-11-11T07:52:03.460Z,20.1
2018-11-11T07:52:52.823Z,20.1
2018-11-11T07:53:42.293Z,20.1
2018-11-11T07:54:32.707Z,20.1
2018-11-11T07:55:23.082Z,20.1
2018-11-11T07:56:13.664Z,20.1
2018-11-11T07:57:02.564Z,20.1
2018-11-11T07:57:52.863Z,20.1
2018-11-11T07:58:43.285Z,20.1
2018-11-11T07:59:33.335Z,20.1
2018-11-11T08:00:23.083Z,20.1
2018-11-11T08:01:13.053Z,20.1
2018-11-11T08:02:03.623Z,20.1
2018-11-11T08:02:53.413Z,20.1
2018-11-11T08:03:43.055Z,20.1
2018-11-11T08:04:33.655Z,20.1
2018-11-11T08:05:22.387Z,20.1
2018-11-11T08:06:14.045Z,20.1
2018-11-11T08:07:03.847Z,20.1
2018-11-11T08:07:54.381Z,20.1
2018-11-11T08:08:43.642Z,20.1
2018-11-11T08:09:33.100Z,20.1
2018-11-11T08:10:24.048Z,20.1
2018-11-11T08:11:15.297Z,20.1
2018-11-11T08:12:03.946Z,20.1
2018-11-11T08:12:54.459Z,20.1
2018-11-11T08:13:44.542Z,20.1
2018-11-11T08:14:34.400Z,20.1
2018-11-11T08:15:23.189Z,20.1
2018-11-11T08:16:14.474Z,20.1
2018-11-11T08:17:04.402Z,20.1
2018-11-11T08:17:54.832Z,20.1
2018-11-11T08:18:44.147Z,20.1
2018-11-11T08:19:34.254Z,20.1
2018-11-11T08:20:25.275Z,20.1
2018-11-11T08:21:14.987Z,20.1
2018-11-11T08:22:05.260Z,20.1
2018-11-11T08:22:55.004Z,20.1
2018-11-11T08:23:44.981Z,20.1
2018-11-11T08:24:34.246Z,20.1
2018-11-11T08:25:25.499Z,20.1
2018-11-11T08:26:14.480Z,20.1
2018-11-11T08:27:04.055Z,20.1
2018-11-11T08:27:55.079Z,20.1
2018-11-11T08:28:44.788Z,20.1
2018-11-11T08:29:34.891Z,20.1
2018-11-11T08:30:25.036Z,20.1
2018-11-11T08:31:15.763Z,20.1
2018-11-11T08:32:06.376Z,20.1
2018-11-11T08:32:56.173Z,20.1
2018-11-11T08:33:45.452Z,20.1
2018-11-11T08:34:35.506Z,20.1
2018-11-11T08:35:25.765Z,20.1
2018-11-11T08:36:15.876Z,20.1
2018-11-11T08:37:06.195Z,20.1
2018-11-11T08:37:54.981Z,20.1
2018-11-11T08:38:46.915Z,20.1
2018-11-11T08:39:36.350Z,20.1
2018-11-11T08:40:26.507Z,20.1
2018-11-11T08:41:15.362Z,20.1
2018-11-11T08:42:06.006Z,20.1
2018-11-11T08:42:56.183Z,20.1
2018-11-11T08:43:46.477Z,20.1
2018-11-11T08:44:36.479Z,20.1
2018-11-11T08:45:26.573Z,20.1
2018-11-11T08:46:15.992Z,20.1
2018-11-11T08:47:06.355Z,20.1
2018-11-11T08:47:57.368Z,20.1
2018-11-11T08:48:47.067Z,20.1
2018-11-11T08:49:37.570Z,20.1
2018-11-11T08:50:26.310Z,20.1
2018-11-11T08:51:16.955Z,20.1
2018-11-11T08:52:07.567Z,20.2
2018-11-11T09:08:48.329Z,20.1
2018-11-11T09:09:37.210Z,20.2
2018-11-11T09:10:28.504Z,20.2
2018-11-11T09:11:19.307Z,20.2
2018-11-11T09:12:07.342Z,20.2
2018-11-11T09:12:57.282Z,20.2
2018-11-11T09:13:48.704Z,20.2
2018-11-11T09:14:38.389Z,20.2
2018-11-11T09:15:27.003Z,20.2
2018-11-11T09:16:18.635Z,20.2
2018-11-11T09:17:08.581Z,20.2
2018-11-11T09:17:58.466Z,20.2
2018-11-11T09:18:48.763Z,20.2
2018-11-11T09:19:38.311Z,20.2
2018-11-11T09:20:28.738Z,20.2
2018-11-11T09:21:19.297Z,20.2
2018-11-11T09:22:08.812Z,20.2
2018-11-11T09:22:58.547Z,20.2
2018-11-11T09:23:48.337Z,20.2
2018-11-11T09:24:38.486Z,20.2
2018-11-11T09:25:29.388Z,20.2
2018-11-11T09:26:18.657Z,20.2
2018-11-11T09:27:09.680Z,20.2
2018-11-11T09:27:58.720Z,20.2
2018-11-11T09:28:49.797Z,20.2
2018-11-11T09:29:41.242Z,20.2
2018-11-11T09:30:31.659Z,20.2
2018-11-11T09:31:20.261Z,20.2
2018-11-11T09:32:09.235Z,20.2
2018-11-11T09:32:59.220Z,20.2
2018-11-11T09:33:49.349Z,20.2
2018-11-11T09:34:39.664Z,20.2
2018-11-11T09:35:31.987Z,20.3
2018-11-11T09:36:19.647Z,20.2
2018-11-11T09:37:09.863Z,20.2
2018-11-11T09:37:59.986Z,20.2
2018-11-11T09:38:50.346Z,20.2
2018-11-11T09:39:40.922Z,20.2
2018-11-11T09:40:29.807Z,20.2
2018-11-11T09:41:20.846Z,20.2
2018-11-11T09:42:10.780Z,20.3
2018-11-11T09:42:59.853Z,20.3
2018-11-11T09:43:50.159Z,20.3
2018-11-11T09:44:39.980Z,20.3
2018-11-11T09:45:30.794Z,20.3
2018-11-11T09:46:21.657Z,20.3
2018-11-11T09:47:11.124Z,20.3
2018-11-11T09:48:02.233Z,20.3
2018-11-11T09:48:50.754Z,20.3
2018-11-11T09:49:40.824Z,20.3
2018-11-11T09:50:31.630Z,20.3
2018-11-11T09:51:20.249Z,20.3
2018-11-11T09:52:10.492Z,20.3
2018-11-11T09:53:00.494Z,20.3
2018-11-11T09:53:50.942Z,20.3
2018-11-11T09:54:41.198Z,20.3
2018-11-11T09:55:30.928Z,20.3
2018-11-11T09:56:21.927Z,20.3
2018-11-11T09:57:11.858Z,20.3
2018-11-11T09:58:01.165Z,20.3
2018-11-11T09:58:52.880Z,20.3
2018-11-11T09:59:43.653Z,20.3
2018-11-11T10:00:32.447Z,20.3
2018-11-11T10:01:20.712Z,20.3
2018-11-11T10:02:10.271Z,20.3
2018-11-11T10:03:01.814Z,20.3
2018-11-11T10:03:51.570Z,20.3
2018-11-11T10:04:41.615Z,20.3
2018-11-11T10:05:32.153Z,20.3
2018-11-11T10:06:22.251Z,20.3
2018-11-11T10:07:12.885Z,20.3
2018-11-11T10:08:01.478Z,20.3
2018-11-11T10:08:50.984Z,20.4
2018-11-11T10:09:41.711Z,20.4
2018-11-11T10:10:32.252Z,20.4
2018-11-11T10:11:22.697Z,20.4
2018-11-11T10:12:12.212Z,20.4
2018-11-11T10:13:01.612Z,20.4
2018-11-11T10:13:51.656Z,20.4
2018-11-11T10:14:42.163Z,20.4
2018-11-11T10:15:32.317Z,20.4
2018-11-11T10:16:22.741Z,20.4
2018-11-11T10:17:12.848Z,20.4
2018-11-11T10:18:03.129Z,20.4
2018-11-11T10:18:52.401Z,20.4
2018-11-11T10:19:42.628Z,20.4
2018-11-11T10:20:33.801Z,20.5
2018-11-11T10:21:23.702Z,20.5
2018-11-11T10:22:12.891Z,20.5
2018-11-11T10:23:02.333Z,20.5
2018-11-11T10:23:53.050Z,20.5
2018-11-11T10:24:42.206Z,20.5
2018-11-11T10:25:32.938Z,20.6
2018-11-11T10:26:24.243Z,20.6
2018-11-11T10:27:13.842Z,20.6
2018-11-11T10:28:03.106Z,20.5
2018-11-11T10:28:53.506Z,20.6
2018-11-11T10:29:43.227Z,20.6
2018-11-11T10:30:33.536Z,20.6
2018-11-11T10:31:22.976Z,20.6
2018-11-11T10:32:13.136Z,20.6
2018-11-11T10:33:03.913Z,20.5
2018-11-11T10:33:53.256Z,20.6
2018-11-11T10:34:43.988Z,20.6
2018-11-11T10:35:34.616Z,20.6
2018-11-11T10:36:24.145Z,20.6
2018-11-11T10:37:13.498Z,20.6
2018-11-11T10:38:04.728Z,20.6
2018-11-11T10:38:53.518Z,20.6
2018-11-11T10:39:44.922Z,20.6
2018-11-11T10:40:35.361Z,20.6
2018-11-11T10:41:23.330Z,20.6
2018-11-11T10:42:13.527Z,20.6
2018-11-11T10:43:04.423Z,20.6
2018-11-11T10:43:54.184Z,20.6
2018-11-11T10:44:43.810Z,20.6
2018-11-11T10:45:34.259Z,20.6
2018-11-11T10:46:24.197Z,20.6
2018-11-11T10:47:15.114Z,20.6
2018-11-11T10:48:05.051Z,20.6
2018-11-11T10:48:55.314Z,20.6
2018-11-11T10:49:45.674Z,20.6
2018-11-11T10:50:34.171Z,20.6
2018-11-11T10:51:25.559Z,20.6
2018-11-11T10:52:15.639Z,20.6
2018-11-11T10:53:04.990Z,20.6
2018-11-11T10:53:54.889Z,20.6
2018-11-11T10:54:46.609Z,20.6
2018-11-11T10:55:35.292Z,20.6
2018-11-11T10:56:24.925Z,20.6
2018-11-11T10:57:15.349Z,20.6
2018-11-11T10:58:05.369Z,20.6
2018-11-11T10:58:55.734Z,20.6
2018-11-11T10:59:45.608Z,20.6
2018-11-11T11:00:35.026Z,20.6
2018-11-11T11:01:25.323Z,20.6
2018-11-11T11:02:16.569Z,20.6
2018-11-11T11:03:06.063Z,20.6
2018-11-11T11:03:55.351Z,20.6
2018-11-11T11:04:45.671Z,20.6
2018-11-11T11:05:36.566Z,20.6
2018-11-11T11:06:26.858Z,20.7
2018-11-11T11:07:17.231Z,20.6
2018-11-11T11:08:06.646Z,20.6
2018-11-11T11:08:56.046Z,20.6
2018-11-11T11:09:45.970Z,20.6
2018-11-11T11:10:36.959Z,20.6
2018-11-11T11:11:26.348Z,20.6
2018-11-11T11:12:17.204Z,20.6
2018-11-11T11:13:07.907Z,20.6
2018-11-11T11:13:58.093Z,20.6
2018-11-11T11:14:47.720Z,20.6
2018-11-11T11:15:36.534Z,20.6
2018-11-11T11:16:26.640Z,20.6
2018-11-11T11:17:17.408Z,20.6
2018-11-11T11:18:06.769Z,20.6
2018-11-11T11:18:56.608Z,20.5
2018-11-11T11:19:48.145Z,20.5
2018-11-11T11:20:37.106Z,20.6
2018-11-11T11:21:27.398Z,20.6
2018-11-11T11:22:17.973Z,20.5
2018-11-11T11:23:08.601Z,20.5
2018-11-11T11:23:57.106Z,20.5
2018-11-11T11:24:47.020Z,20.6
2018-11-11T11:25:37.605Z,20.5
2018-11-11T11:26:27.552Z,20.5
2018-11-11T11:27:19.029Z,20.5
2018-11-11T11:28:07.654Z,20.5
2018-11-11T11:28:58.502Z,20.5
2018-11-11T11:29:47.677Z,20.5
2018-11-11T11:30:38.282Z,20.5
2018-11-11T11:31:29.316Z,20.5
2018-11-11T11:32:19.668Z,20.5
2018-11-11T11:33:08.437Z,20.5
2018-11-11T11:33:59.184Z,20.5
2018-11-11T11:34:48.882Z,20.5
2018-11-11T11:35:40.206Z,20.5
2018-11-11T11:36:28.781Z,20.5
2018-11-11T11:37:19.404Z,20.5
2018-11-11T11:38:09.388Z,20.5
2018-11-11T11:38:59.467Z,20.5
2018-11-11T11:39:49.100Z,20.4
2018-11-11T11:40:38.879Z,20.5
2018-11-11T11:41:30.098Z,20.5
2018-11-11T11:42:19.427Z,20.5
2018-11-11T11:43:08.629Z,20.5
2018-11-11T11:43:58.744Z,20.5
2018-11-11T11:44:48.339Z,20.5
2018-11-11T11:45:39.701Z,20.5
2018-11-11T11:46:28.939Z,20.5
2018-11-11T11:47:20.791Z,20.5
2018-11-11T11:48:10.124Z,20.5
2018-11-11T11:48:59.356Z,20.5
2018-11-11T11:49:48.881Z,20.5
2018-11-11T11:50:39.563Z,20.5
2018-11-11T11:51:29.670Z,20.5
2018-11-11T11:52:21.532Z,20.5
2018-11-11T11:53:11.233Z,20.5
2018-11-11T11:53:59.688Z,20.5
2018-11-11T11:54:49.891Z,20.5
2018-11-11T11:55:39.783Z,20.6
2018-11-11T11:56:30.191Z,20.5
2018-11-11T11:57:20.778Z,20.5